Time,TemperatureF,DewpointF,PressureIn,WindDirection,WindDirectionDegrees,WindSpeedMPH,WindSpeedGustMPH,Humidity,HourlyPrecipIn,Conditions,Clouds,dailyrainin,SolarRadiationWatts/m^2,SoftwareType,DateUTC
2017-01-21 00:00:00,38.0,37.7,29.92,SE,126,0.0,0.0,99,0.00,,,0.10,0.00,VWS V14.01,2017-01-21 05:00:00,
2017-01-21 00:04:00,37.9,37.6,29.92,SE,124,0.0,0.0,99,0.00,,,0.00,0.00,VWS V14.01,2017-01-21 05:04:00,
2017-01-21 00:05:00,38.0,38.0,29.92,SE,126,0.0,0.0,100,0.00,,,0.00,0.00,VWS V14.01,2017-01-21 05:05:00,
2017-01-21 00:09:00,37.9,37.9,29.92,SE,124,0.0,0.0,100,0.00,,,0.00,0.00,VWS V14.01,2017-01-21 05:09:00,
2017-01-21 00:10:00,37.9,37.9,29.92,SE,126,0.0,0.0,100,0.00,,,0.00,0.00,VWS V14.01,2017-01-21 05:10:00,
2017-01-21 00:14:00,37.9,37.9,29.92,SE,126,0.0,0.0,100,0.00,,,0.00,0.00,VWS V14.01,2017-01-21 05:14:00,
2017-01-21 00:15:00,37.9,37.9,29.92,SE,126,0.0,0.0,100,0.00,,,0.00,0.00,VWS V14.01,2017-01-21 05:15:00,
2017-01-21 00:19:00,37.9,37.9,29.92,SE,126,0.0,0.0,100,0.00,,,0.00,0.00,VWS V14.01,2017-01-21 05:19:00,
2017-01-21 00:20:00,37.9,37.9,29.92,SE,126,0.0,0.0,100,0.00,,,0.00,0.00,VWS V14.01,2017-01-21 05:20:00,
2017-01-21 00:24:00,37.9,37.9,29.92,SE,126,0.0,0.0,100,0.00,,,0.00,0.00,VWS V14.01,2017-01-21 05:24:00,
2017-01-21 00:25:00,37.9,37.9,29.92,SE,126,0.0,0.0,100,0.00,,,0.00,0.00,VWS V14.01,2017-01-21 05:25:00,
2017-01-21 00:29:00,38.0,38.0,29.92,SE,126,0.0,0.0,100,0.00,,,0.00,0.00,VWS V14.01,2017-01-21 05:29:00,
2017-01-21 00:30:00,38.0,38.0,29.92,SE,126,0.0,0.0,100,0.00,,,0.00,0.00,VWS V14.01,2017-01-21 05:30:00,
2017-01-21 00:34:00,38.0,38.0,29.92,SE,126,0.0,0.0,100,0.00,,,0.00,0.00,VWS V14.01,2017-01-21 05:34:00,
2017-01-21 00:35:00,38.0,38.0,29.92,ESE,119,0.0,0.0,100,0.00,,,0.00,0.00,VWS V14.01,2017-01-21 05:35:00,
2017-01-21 00:39:00,38.0,38.0,29.92,SE,126,0.0,0.0,100,0.00,,,0.00,0.00,VWS V14.01,2017-01-21 05:39:00,
2017-01-21 00:40:00,38.0,38.0,29.92,SE,126,0.0,0.0,100,0.00,,,0.00,0.00,VWS V14.01,2017-01-21 05:40:00,
2017-01-21 00:44:00,38.0,38.0,29.92,SE,126,0.0,0.0,100,0.00,,,0.00,0.00,VWS V14.01,2017-01-21 05:44:00,
2017-01-21 00:45:00,38.0,38.0,29.92,SE,126,0.0,0.0,100,0.00,,,0.00,0.00,VWS V14.01,2017-01-21 05:45:00,
2017-01-21 00:49:00,37.9,37.9,29.92,South,181,4.0,6.0,100,0.00,,,0.00,0.00,VWS V14.01,2017-01-21 05:49:00,
2017-01-21 00:50:00,37.9,37.9,29.92,South,181,1.0,6.0,100,0.00,,,0.00,0.00,VWS V14.01,2017-01-21 05:50:00,
2017-01-21 00:53:00,37.9,37.9,29.92,South,181,2.0,4.0,100,0.00,,,0.00,0.00,VWS V14.01,2017-01-21 05:53:00,
2017-01-21 00:55:00,37.9,37.9,29.92,South,181,1.0,4.0,100,0.00,,,0.00,0.00,VWS V14.01,2017-01-21 05:55:00,
2017-01-21 00:58:00,37.9,37.9,29.92,South,181,0.0,0.0,100,0.00,,,0.00,0.00,VWS V14.01,2017-01-21 05:58:00,
2017-01-21 01:00:00,37.9,37.9,29.92,South,172,0.0,0.0,100,0.00,,,0.00,0.00,VWS V14.01,2017-01-21 06:00:00,
2017-01-21 01:03:00,37.9,37.9,29.92,South,181,0.0,0.0,100,0.00,,,0.00,0.00,VWS V14.01,2017-01-21 06:03:00,
2017-01-21 01:05:00,37.9,37.9,29.92,South,181,0.0,0.0,100,0.00,,,0.00,0.00,VWS V14.01,2017-01-21 06:05:00,
2017-01-21 01:08:00,37.9,37.9,29.92,South,181,0.0,0.0,100,0.00,,,0.00,0.00,VWS V14.01,2017-01-21 06:08:00,
2017-01-21 01:10:00,37.9,37.9,29.92,South,181,0.0,0.0,100,0.00,,,0.00,0.00,VWS V14.01,2017-01-21 06:10:00,
2017-01-21 01:13:00,37.9,37.9,29.92,South,181,0.0,3.0,100,0.00,,,0.00,0.00,VWS V14.01,2017-01-21 06:13:00,
2017-01-21 01:15:00,37.9,37.9,29.92,South,181,0.0,2.0,100,0.00,,,0.00,0.00,VWS V14.01,2017-01-21 06:15:00,
2017-01-21 01:18:00,37.9,37.9,29.92,South,181,0.0,0.0,100,0.00,,,0.00,0.00,VWS V14.01,2017-01-21 06:18:00,
2017-01-21 01:20:00,37.9,37.9,29.92,South,181,0.0,0.0,100,0.00,,,0.00,0.00,VWS V14.01,2017-01-21 06:20:00,
2017-01-21 01:23:00,37.9,37.9,29.92,South,181,0.0,0.0,100,0.00,,,0.00,0.00,VWS V14.01,2017-01-21 06:23:00,
2017-01-21 01:25:00,37.9,37.9,29.92,South,181,0.0,0.0,100,0.00,,,0.00,0.00,VWS V14.01,2017-01-21 06:25:00,
2017-01-21 01:28:00,37.9,37.9,29.92,South,181,0.0,3.0,100,0.00,,,0.00,0.00,VWS V14.01,2017-01-21 06:28:00,
2017-01-21 01:30:00,37.9,37.9,29.91,South,181,0.0,0.0,100,0.00,,,0.00,0.00,VWS V14.01,2017-01-21 06:30:00,
2017-01-21 01:33:00,37.8,37.8,29.91,South,181,0.0,0.0,100,0.00,,,0.00,0.00,VWS V14.01,2017-01-21 06:33:00,
2017-01-21 01:35:00,37.8,37.8,29.91,South,181,0.0,0.0,100,0.00,,,0.00,0.00,VWS V14.01,2017-01-21 06:35:00,
2017-01-21 01:38:00,37.8,37.8,29.91,South,181,0.0,0.0,100,0.00,,,0.00,0.00,VWS V14.01,2017-01-21 06:38:00,
2017-01-21 01:40:00,37.8,37.8,29.91,South,181,0.0,0.0,100,0.00,,,0.00,0.00,VWS V14.01,2017-01-21 06:40:00,
2017-01-21 01:43:00,37.8,37.8,29.91,South,181,0.0,0.0,100,0.00,,,0.00,0.00,VWS V14.01,2017-01-21 06:43:00,
2017-01-21 01:45:00,37.8,37.8,29.91,South,181,0.0,0.0,100,0.00,,,0.00,0.00,VWS V14.01,2017-01-21 06:45:00,
2017-01-21 01:48:00,37.8,37.8,29.91,South,181,0.0,2.0,100,0.00,,,0.00,0.00,VWS V14.01,2017-01-21 06:48:00,
2017-01-21 01:50:00,37.8,37.8,29.91,South,181,0.0,2.0,100,0.00,,,0.00,0.00,VWS V14.01,2017-01-21 06:50:00,
2017-01-21 01:53:00,37.8,37.8,29.91,South,181,0.0,0.0,100,0.00,,,0.00,0.00,VWS V14.01,2017-01-21 06:53:00,
2017-01-21 01:55:00,37.8,37.8,29.91,South,181,0.0,0.0,100,0.00,,,0.00,0.00,VWS V14.01,2017-01-21 06:55:00,
2017-01-21 01:58:00,37.8,37.8,29.91,South,181,0.0,0.0,100,0.00,,,0.00,0.00,VWS V14.01,2017-01-21 06:58:00,
2017-01-21 02:00:00,37.8,37.8,29.91,South,181,0.0,0.0,100,0.00,,,0.00,0.00,VWS V14.01,2017-01-21 07:00:00,
2017-01-21 02:03:00,37.8,37.8,29.91,South,181,0.0,0.0,100,0.00,,,0.00,0.00,VWS V14.01,2017-01-21 07:03:00,
2017-01-21 02:05:00,37.8,37.8,29.91,South,181,0.0,0.0,100,0.00,,,0.00,0.00,VWS V14.01,2017-01-21 07:05:00,
2017-01-21 02:08:00,37.8,37.8,29.91,South,181,0.0,0.0,100,0.00,,,0.00,0.00,VWS V14.01,2017-01-21 07:08:00,
2017-01-21 02:10:00,37.8,37.8,29.91,South,181,0.0,0.0,100,0.00,,,0.00,0.00,VWS V14.01,2017-01-21 07:10:00,
2017-01-21 02:13:00,37.8,37.8,29.91,South,181,0.0,0.0,100,0.00,,,0.00,0.00,VWS V14.01,2017-01-21 07:13:00,
2017-01-21 02:15:00,37.8,37.8,29.90,South,181,0.0,0.0,100,0.00,,,0.00,0.00,VWS V14.01,2017-01-21 07:15:00,
2017-01-21 02:18:00,37.8,37.8,29.90,South,181,0.0,0.0,100,0.00,,,0.00,0.00,VWS V14.01,2017-01-21 07:18:00,
2017-01-21 02:20:00,37.8,37.8,29.90,South,181,0.0,0.0,100,0.00,,,0.00,0.00,VWS V14.01,2017-01-21 07:20:00,
2017-01-21 02:23:00,37.8,37.8,29.90,South,181,0.0,2.0,100,0.00,,,0.00,0.00,VWS V14.01,2017-01-21 07:23:00,
2017-01-21 02:25:00,37.8,37.8,29.90,South,181,0.0,1.0,100,0.00,,,0.00,0.00,VWS V14.01,2017-01-21 07:25:00,
2017-01-21 02:28:00,37.8,37.8,29.90,South,181,0.0,0.0,100,0.00,,,0.00,0.00,VWS V14.01,2017-01-21 07:28:00,
2017-01-21 02:30:00,37.8,37.8,29.91,South,181,0.0,0.0,100,0.00,,,0.00,0.00,VWS V14.01,2017-01-21 07:30:00,
2017-01-21 02:33:00,37.8,37.8,29.91,South,181,0.0,0.0,100,0.00,,,0.00,0.00,VWS V14.01,2017-01-21 07:33:00,
2017-01-21 02:35:00,37.8,37.8,29.91,South,181,0.0,0.0,100,0.00,,,0.00,0.00,VWS V14.01,2017-01-21 07:35:00,
2017-01-21 02:38:00,37.8,37.8,29.91,South,181,2.0,4.0,100,0.00,,,0.00,0.00,VWS V14.01,2017-01-21 07:38:00,
2017-01-21 02:40:00,37.8,37.8,29.91,South,181,1.0,4.0,100,0.00,,,0.00,0.00,VWS V14.01,2017-01-21 07:40:00,
2017-01-21 02:43:00,37.8,37.8,29.91,South,181,0.0,2.0,100,0.00,,,0.00,0.00,VWS V14.01,2017-01-21 07:43:00,
2017-01-21 02:45:00,37.8,37.8,29.91,South,181,0.0,0.0,100,0.00,,,0.00,0.00,VWS V14.01,2017-01-21 07:45:00,
2017-01-21 02:48:00,37.8,37.8,29.91,South,181,1.0,3.0,100,0.00,,,0.00,0.00,VWS V14.01,2017-01-21 07:48:00,
2017-01-21 02:50:00,37.8,37.8,29.91,South,181,0.0,3.0,100,0.00,,,0.00,0.00,VWS V14.01,2017-01-21 07:50:00,
2017-01-21 02:53:00,37.8,37.8,29.91,South,181,0.0,0.0,100,0.00,,,0.00,0.00,VWS V14.01,2017-01-21 07:53:00,
2017-01-21 02:55:00,37.8,37.8,29.91,South,181,0.0,2.0,100,0.00,,,0.00,0.00,VWS V14.01,2017-01-21 07:55:00,
2017-01-21 02:58:00,37.8,37.8,29.91,South,181,0.0,0.0,100,0.00,,,0.00,0.00,VWS V14.01,2017-01-21 07:58:00,
2017-01-21 03:05:00,0.0,0.0,0.11,North,0,0.0,0.0,0,0.00,,,0.00,0.00,VWS V14.01,2017-01-21 08:05:00,
2017-01-21 03:10:00,37.8,37.8,29.90,SW,217,1.0,6.0,100,0.00,,,0.00,0.00,VWS V14.01,2017-01-21 08:10:00,
2017-01-21 03:15:00,37.8,37.8,29.91,SSW,209,2.0,7.0,100,0.00,,,0.00,0.00,VWS V14.01,2017-01-21 08:15:00,
2017-01-21 03:20:00,37.8,37.8,29.91,SSW,212,0.0,3.0,100,0.00,,,0.00,0.00,VWS V14.01,2017-01-21 08:20:00,
2017-01-21 03:25:00,37.8,37.8,29.91,SSW,210,0.0,0.0,100,0.00,,,0.00,0.00,VWS V14.01,2017-01-21 08:25:00,
2017-01-21 03:30:00,37.8,37.8,29.90,SSW,208,0.0,2.0,100,0.00,,,0.00,0.00,VWS V14.01,2017-01-21 08:30:00,
2017-01-21 03:35:00,37.8,37.8,29.90,SSW,209,0.0,4.0,100,0.00,,,0.00,0.00,VWS V14.01,2017-01-21 08:35:00,
2017-01-21 03:40:00,37.8,37.8,29.90,SSW,212,6.0,6.0,100,0.00,,,0.00,0.00,VWS V14.01,2017-01-21 08:40:00,
2017-01-21 03:45:00,37.8,37.8,29.90,SSW,212,0.0,5.0,100,0.00,,,0.00,0.00,VWS V14.01,2017-01-21 08:45:00,
2017-01-21 03:50:00,37.8,37.8,29.90,SSW,212,0.0,0.0,100,0.00,,,0.00,0.00,VWS V14.01,2017-01-21 08:50:00,
2017-01-21 03:55:00,37.8,37.8,29.90,SSW,212,0.0,0.0,100,0.00,,,0.00,0.00,VWS V14.01,2017-01-21 08:55:00,
2017-01-21 04:00:00,37.8,37.8,29.89,SSW,213,0.0,0.0,100,0.00,,,0.00,0.00,VWS V14.01,2017-01-21 09:00:00,
2017-01-21 04:05:00,37.9,37.9,29.89,SSW,213,0.0,0.0,100,0.00,,,0.00,0.00,VWS V14.01,2017-01-21 09:05:00,
2017-01-21 04:10:00,37.9,37.9,29.89,SSW,213,3.0,5.0,100,0.00,,,0.00,0.00,VWS V14.01,2017-01-21 09:10:00,
2017-01-21 04:15:00,37.9,37.9,29.89,SSW,213,0.0,0.0,100,0.00,,,0.00,0.00,VWS V14.01,2017-01-21 09:15:00,
2017-01-21 04:20:00,38.0,38.0,29.89,SSW,212,0.0,5.0,100,0.00,,,0.00,0.00,VWS V14.01,2017-01-21 09:20:00,
2017-01-21 04:25:00,38.0,38.0,29.89,SSW,212,0.0,6.0,100,0.00,,,0.00,0.00,VWS V14.01,2017-01-21 09:25:00,
2017-01-21 04:30:00,38.0,38.0,29.89,SSW,213,0.0,0.0,100,0.00,,,0.00,0.00,VWS V14.01,2017-01-21 09:30:00,
2017-01-21 04:35:00,38.2,38.2,29.89,SSW,212,0.0,7.0,100,0.00,,,0.00,0.00,VWS V14.01,2017-01-21 09:35:00,
2017-01-21 04:40:00,38.2,38.2,29.89,SSW,212,0.0,3.0,100,0.00,,,0.00,0.00,VWS V14.01,2017-01-21 09:40:00,
2017-01-21 04:45:00,38.2,38.2,29.89,SSW,212,0.0,2.0,100,0.00,,,0.00,0.00,VWS V14.01,2017-01-21 09:45:00,
2017-01-21 04:50:00,38.3,38.3,29.89,SSW,212,0.0,0.0,100,0.00,,,0.00,0.00,VWS V14.01,2017-01-21 09:50:00,
2017-01-21 04:55:00,38.3,38.3,29.89,SSW,212,0.0,2.0,100,0.00,,,0.00,0.00,VWS V14.01,2017-01-21 09:55:00,
2017-01-21 05:00:00,38.3,38.3,29.88,SW,219,0.0,1.0,100,0.00,,,0.00,0.00,VWS V14.01,2017-01-21 10:00:00,
2017-01-21 05:05:00,38.3,38.3,29.88,SW,219,0.0,0.0,100,0.00,,,0.00,0.00,VWS V14.01,2017-01-21 10:05:00,
2017-01-21 05:10:00,38.3,38.3,29.88,SW,219,0.0,0.0,100,0.00,,,0.00,0.00,VWS V14.01,2017-01-21 10:10:00,
2017-01-21 05:15:00,38.3,38.3,29.88,SW,219,0.0,0.0,100,0.00,,,0.00,0.00,VWS V14.01,2017-01-21 10:15:00,
2017-01-21 05:20:00,38.3,38.3,29.88,SW,219,0.0,0.0,100,0.00,,,0.00,0.00,VWS V14.01,2017-01-21 10:20:00,
2017-01-21 05:25:00,38.3,38.3,29.88,SW,219,0.0,0.0,100,0.00,,,0.00,0.00,VWS V14.01,2017-01-21 10:25:00,
2017-01-21 05:30:00,38.3,38.3,29.89,SW,219,0.0,0.0,100,0.00,,,0.00,0.00,VWS V14.01,2017-01-21 10:30:00,
2017-01-21 05:35:00,38.3,38.3,29.89,SW,219,0.0,0.0,100,0.00,,,0.00,0.00,VWS V14.01,2017-01-21 10:35:00,
2017-01-21 05:40:00,38.5,38.5,29.89,SW,219,0.0,0.0,100,0.00,,,0.00,0.00,VWS V14.01,2017-01-21 10:40:00,
2017-01-21 05:45:00,38.5,38.5,29.88,SW,219,0.0,0.0,100,0.00,,,0.00,0.00,VWS V14.01,2017-01-21 10:45:00,
2017-01-21 05:50:00,38.5,38.5,29.88,SW,219,0.0,0.0,100,0.00,,,0.00,0.00,VWS V14.01,2017-01-21 10:50:00,
2017-01-21 05:55:00,38.5,38.5,29.88,SW,219,0.0,3.0,100,0.00,,,0.00,0.00,VWS V14.01,2017-01-21 10:55:00,
2017-01-21 06:00:00,38.5,38.5,29.88,SW,219,0.0,0.0,100,0.00,,,0.00,0.00,VWS V14.01,2017-01-21 11:00:00,
2017-01-21 06:05:00,38.5,38.5,29.88,SW,219,0.0,0.0,100,0.00,,,0.00,0.00,VWS V14.01,2017-01-21 11:05:00,
2017-01-21 06:10:00,38.5,38.5,29.88,SW,219,0.0,0.0,100,0.00,,,0.00,0.00,VWS V14.01,2017-01-21 11:10:00,
2017-01-21 06:15:00,38.3,38.3,29.87,SW,219,0.0,0.0,100,0.00,,,0.00,0.00,VWS V14.01,2017-01-21 11:15:00,
2017-01-21 06:20:00,38.2,38.2,29.87,SW,219,0.0,0.0,100,0.00,,,0.00,0.00,VWS V14.01,2017-01-21 11:20:00,
2017-01-21 06:25:00,38.0,38.0,29.87,SW,219,0.0,0.0,100,0.00,,,0.00,0.00,VWS V14.01,2017-01-21 11:25:00,
2017-01-21 06:30:00,37.9,37.9,29.89,SW,219,0.0,0.0,100,0.00,,,0.00,0.00,VWS V14.01,2017-01-21 11:30:00,
2017-01-21 06:35:00,38.0,38.0,29.89,SW,219,0.0,0.0,100,0.00,,,0.00,0.00,VWS V14.01,2017-01-21 11:35:00,
2017-01-21 06:40:00,38.0,38.0,29.89,SW,219,0.0,0.0,100,0.00,,,0.00,0.00,VWS V14.01,2017-01-21 11:40:00,
2017-01-21 06:45:00,37.9,37.9,29.88,SW,219,0.0,0.0,100,0.00,,,0.00,0.00,VWS V14.01,2017-01-21 11:45:00,
2017-01-21 06:50:00,37.9,37.9,29.88,SW,219,0.0,0.0,100,0.00,,,0.00,0.00,VWS V14.01,2017-01-21 11:50:00,
2017-01-21 06:55:00,37.9,37.9,29.88,SW,219,0.0,0.0,100,0.00,,,0.00,0.00,VWS V14.01,2017-01-21 11:55:00,
2017-01-21 07:00:00,37.9,37.9,29.89,SW,219,0.0,0.0,100,0.00,,,0.00,0.00,VWS V14.01,2017-01-21 12:00:00,
2017-01-21 07:05:00,37.9,37.9,29.89,SW,219,0.0,0.0,100,0.00,,,0.00,0.00,VWS V14.01,2017-01-21 12:05:00,
2017-01-21 07:10:00,37.8,37.8,29.89,SW,219,0.0,0.0,100,0.00,,,0.00,0.00,VWS V14.01,2017-01-21 12:10:00,
2017-01-21 07:15:00,37.9,37.9,29.88,SW,219,0.0,0.0,100,0.00,,,0.00,0.00,VWS V14.01,2017-01-21 12:15:00,
2017-01-21 07:20:00,37.9,37.9,29.88,SW,219,0.0,0.0,100,0.00,,,0.00,0.00,VWS V14.01,2017-01-21 12:20:00,
2017-01-21 07:25:00,38.0,38.0,29.88,SW,219,0.0,0.0,100,0.00,,,0.00,0.00,VWS V14.01,2017-01-21 12:25:00,
2017-01-21 07:30:00,37.9,37.9,29.87,SW,219,0.0,0.0,100,0.00,,,0.00,5.00,VWS V14.01,2017-01-21 12:30:00,
2017-01-21 07:35:00,37.6,37.6,29.87,SW,219,0.0,0.0,100,0.00,,,0.00,7.00,VWS V14.01,2017-01-21 12:35:00,
2017-01-21 07:40:00,37.8,37.8,29.87,SW,219,0.0,0.0,100,0.00,,,0.00,11.00,VWS V14.01,2017-01-21 12:40:00,
2017-01-21 07:45:00,37.8,37.8,29.88,SW,219,0.0,0.0,100,0.00,,,0.00,14.00,VWS V14.01,2017-01-21 12:45:00,
2017-01-21 07:50:00,37.8,37.8,29.88,SW,219,0.0,0.0,100,0.00,,,0.00,19.00,VWS V14.01,2017-01-21 12:50:00,
2017-01-21 07:55:00,37.6,37.6,29.88,SW,219,0.0,0.0,100,0.00,,,0.00,30.00,VWS V14.01,2017-01-21 12:55:00,
2017-01-21 08:00:00,37.6,37.6,29.87,SW,219,0.0,0.0,100,0.00,,,0.00,53.00,VWS V14.01,2017-01-21 13:00:00,
2017-01-21 08:05:00,37.6,37.6,29.87,SW,219,0.0,0.0,100,0.00,,,0.00,60.00,VWS V14.01,2017-01-21 13:05:00,
2017-01-21 08:10:00,37.8,37.8,29.87,SW,219,0.0,0.0,100,0.00,,,0.00,42.00,VWS V14.01,2017-01-21 13:10:00,
2017-01-21 08:15:00,37.8,37.8,29.88,SW,219,0.0,0.0,100,0.00,,,0.00,49.00,VWS V14.01,2017-01-21 13:15:00,
2017-01-21 08:20:00,37.9,37.9,29.88,SW,219,0.0,0.0,100,0.00,,,0.00,114.00,VWS V14.01,2017-01-21 13:20:00,
2017-01-21 08:25:00,38.0,38.0,29.88,SW,219,0.0,0.0,100,0.00,,,0.00,137.00,VWS V14.01,2017-01-21 13:25:00,
2017-01-21 08:30:00,38.3,38.3,29.89,SW,219,0.0,0.0,100,0.00,,,0.00,56.00,VWS V14.01,2017-01-21 13:30:00,
2017-01-21 08:35:00,38.5,38.5,29.89,SW,219,0.0,0.0,100,0.00,,,0.00,93.00,VWS V14.01,2017-01-21 13:35:00,
2017-01-21 08:40:00,38.5,38.5,29.89,SW,219,0.0,0.0,100,0.00,,,0.00,83.00,VWS V14.01,2017-01-21 13:40:00,
2017-01-21 08:45:00,38.6,38.6,29.88,SW,219,0.0,0.0,100,0.00,,,0.00,42.00,VWS V14.01,2017-01-21 13:45:00,
2017-01-21 08:50:00,38.8,38.8,29.88,SW,219,0.0,0.0,100,0.00,,,0.00,69.00,VWS V14.01,2017-01-21 13:50:00,
2017-01-21 08:55:00,39.1,39.1,29.88,SW,219,0.0,3.0,100,0.00,,,0.00,91.00,VWS V14.01,2017-01-21 13:55:00,
2017-01-21 09:00:00,39.2,39.2,29.89,SW,219,0.0,0.0,100,0.00,,,0.00,91.00,VWS V14.01,2017-01-21 14:00:00,
2017-01-21 09:05:00,39.3,39.3,29.89,SW,219,0.0,0.0,100,0.00,,,0.00,84.00,VWS V14.01,2017-01-21 14:05:00,
2017-01-21 09:10:00,39.3,39.3,29.89,SW,219,0.0,0.0,100,0.00,,,0.00,83.00,VWS V14.01,2017-01-21 14:10:00,
2017-01-21 09:15:00,39.5,39.5,29.89,SW,219,3.0,5.0,100,0.00,,,0.00,104.00,VWS V14.01,2017-01-21 14:15:00,
2017-01-21 09:20:00,39.6,39.6,29.89,SW,217,2.0,2.0,100,0.00,,,0.00,81.00,VWS V14.01,2017-01-21 14:20:00,
2017-01-21 09:25:00,39.8,39.8,29.89,SW,217,0.0,0.0,100,0.00,,,0.00,81.00,VWS V14.01,2017-01-21 14:25:00,
2017-01-21 09:30:00,39.8,39.8,29.89,SW,217,1.0,2.0,100,0.00,,,0.00,67.00,VWS V14.01,2017-01-21 14:30:00,
2017-01-21 09:35:00,39.6,39.6,29.89,SSW,213,0.0,2.0,100,0.00,,,0.00,53.00,VWS V14.01,2017-01-21 14:35:00,
2017-01-21 09:40:00,39.6,39.6,29.89,SSW,213,0.0,0.0,100,0.00,,,0.00,63.00,VWS V14.01,2017-01-21 14:40:00,
2017-01-21 09:45:00,39.8,39.8,29.89,SSW,213,3.0,3.0,100,0.00,,,0.00,84.00,VWS V14.01,2017-01-21 14:45:00,
2017-01-21 09:50:00,39.8,39.8,29.89,SSW,209,0.0,0.0,100,0.00,,,0.00,134.00,VWS V14.01,2017-01-21 14:50:00,
2017-01-21 09:55:00,40.2,40.2,29.89,SSW,209,0.0,0.0,100,0.00,,,0.00,132.00,VWS V14.01,2017-01-21 14:55:00,
2017-01-21 10:00:00,40.3,40.3,29.89,SSW,209,0.0,0.0,100,0.00,,,0.00,151.00,VWS V14.01,2017-01-21 15:00:00,
2017-01-21 10:05:00,40.5,40.5,29.89,SSW,209,0.0,0.0,100,0.00,,,0.00,158.00,VWS V14.01,2017-01-21 15:05:00,
2017-01-21 10:10:00,40.5,40.5,29.89,SSW,209,0.0,0.0,100,0.00,,,0.00,144.00,VWS V14.01,2017-01-21 15:10:00,
2017-01-21 10:15:00,40.5,40.5,29.88,SSW,209,0.0,0.0,100,0.00,,,0.00,123.00,VWS V14.01,2017-01-21 15:15:00,
2017-01-21 10:20:00,40.6,40.6,29.88,SSW,209,0.0,0.0,100,0.00,,,0.00,134.00,VWS V14.01,2017-01-21 15:20:00,
2017-01-21 10:25:00,40.8,40.8,29.88,SSW,209,0.0,0.0,100,0.00,,,0.00,123.00,VWS V14.01,2017-01-21 15:25:00,
2017-01-21 10:30:00,41.1,41.1,29.89,SSW,209,0.0,0.0,100,0.00,,,0.00,118.00,VWS V14.01,2017-01-21 15:30:00,
2017-01-21 10:35:00,41.2,41.2,29.89,SSW,209,0.0,0.0,100,0.00,,,0.00,125.00,VWS V14.01,2017-01-21 15:35:00,
2017-01-21 10:40:00,41.2,41.2,29.89,SSW,209,0.0,0.0,100,0.00,,,0.00,141.00,VWS V14.01,2017-01-21 15:40:00,
2017-01-21 10:45:00,41.3,41.3,29.89,SSW,209,0.0,0.0,100,0.00,,,0.00,164.00,VWS V14.01,2017-01-21 15:45:00,
2017-01-21 10:50:00,41.3,41.3,29.89,WNW,296,3.0,3.0,100,0.00,,,0.00,148.00,VWS V14.01,2017-01-21 15:50:00,
2017-01-21 10:55:00,41.3,41.3,29.89,NW,311,0.0,0.0,100,0.00,,,0.00,183.00,VWS V14.01,2017-01-21 15:55:00,
2017-01-21 11:00:00,41.5,41.5,29.89,West,280,5.0,6.0,100,0.00,,,0.00,227.00,VWS V14.01,2017-01-21 16:00:00,
2017-01-21 11:05:00,41.6,41.6,29.89,West,280,0.0,2.0,100,0.00,,,0.00,209.00,VWS V14.01,2017-01-21 16:05:00,
2017-01-21 11:10:00,42.1,42.1,29.89,West,280,0.0,3.0,100,0.00,,,0.00,195.00,VWS V14.01,2017-01-21 16:10:00,
2017-01-21 11:15:00,42.2,42.2,29.89,West,280,0.0,0.0,100,0.00,,,0.00,209.00,VWS V14.01,2017-01-21 16:15:00,
2017-01-21 11:20:00,42.3,42.3,29.89,West,280,0.0,2.0,100,0.00,,,0.00,209.00,VWS V14.01,2017-01-21 16:20:00,
2017-01-21 11:25:00,42.3,42.3,29.89,West,280,0.0,0.0,100,0.00,,,0.00,197.00,VWS V14.01,2017-01-21 16:25:00,
2017-01-21 11:30:00,42.6,42.6,29.88,West,280,0.0,0.0,100,0.00,,,0.00,211.00,VWS V14.01,2017-01-21 16:30:00,
2017-01-21 11:35:00,42.3,42.3,29.88,West,280,0.0,0.0,100,0.00,,,0.00,234.00,VWS V14.01,2017-01-21 16:35:00,
2017-01-21 11:40:00,42.3,42.3,29.88,West,280,0.0,0.0,100,0.00,,,0.00,238.00,VWS V14.01,2017-01-21 16:40:00,
2017-01-21 11:45:00,42.3,42.3,29.88,West,280,0.0,0.0,100,0.00,,,0.00,282.00,VWS V14.01,2017-01-21 16:45:00,
2017-01-21 11:50:00,42.6,42.6,29.88,West,280,0.0,0.0,100,0.00,,,0.00,213.00,VWS V14.01,2017-01-21 16:50:00,
2017-01-21 11:55:00,43.1,43.1,29.88,West,280,0.0,0.0,100,0.00,,,0.00,220.00,VWS V14.01,2017-01-21 16:55:00,
2017-01-21 12:00:00,43.6,43.6,29.86,West,280,0.0,0.0,100,0.00,,,0.00,234.00,VWS V14.01,2017-01-21 17:00:00,
2017-01-21 12:05:00,43.6,43.6,29.86,West,280,0.0,0.0,100,0.00,,,0.00,294.00,VWS V14.01,2017-01-21 17:05:00,
2017-01-21 12:10:00,43.8,43.8,29.86,West,281,0.0,0.0,100,0.00,,,0.00,333.00,VWS V14.01,2017-01-21 17:10:00,
2017-01-21 12:14:00,43.8,43.8,29.84,West,280,0.0,0.0,100,0.00,,,0.00,232.00,VWS V14.01,2017-01-21 17:14:00,
2017-01-21 12:19:00,44.1,44.1,29.84,West,281,0.0,0.0,100,0.00,,,0.00,340.00,VWS V14.01,2017-01-21 17:19:00,
2017-01-21 12:24:00,43.9,43.9,29.84,West,280,0.0,0.0,100,0.00,,,0.00,257.00,VWS V14.01,2017-01-21 17:24:00,
2017-01-21 12:29:00,44.8,44.8,29.83,West,280,0.0,0.0,100,0.00,,,0.00,512.00,VWS V14.01,2017-01-21 17:29:00,
2017-01-21 12:34:00,45.2,45.2,29.83,West,264,0.0,0.0,100,0.00,,,0.00,486.00,VWS V14.01,2017-01-21 17:34:00,
2017-01-21 12:39:00,45.7,45.7,29.83,WSW,251,0.0,1.0,100,0.00,,,0.00,509.00,VWS V14.01,2017-01-21 17:39:00,
2017-01-21 12:44:00,45.8,45.8,29.83,South,172,5.0,5.0,100,0.00,,,0.00,501.00,VWS V14.01,2017-01-21 17:44:00,
2017-01-21 12:49:00,45.8,45.8,29.83,SSE,158,2.0,5.0,100,0.00,,,0.00,487.00,VWS V14.01,2017-01-21 17:49:00,
2017-01-21 12:54:00,46.5,46.5,29.83,SSE,158,0.0,0.0,100,0.00,,,0.00,486.00,VWS V14.01,2017-01-21 17:54:00,
2017-01-21 12:59:00,46.8,46.8,29.82,SSE,158,0.0,1.0,100,0.00,,,0.00,463.00,VWS V14.01,2017-01-21 17:59:00,
2017-01-21 13:04:00,47.3,47.3,29.82,SSE,158,0.0,1.0,100,0.00,,,0.00,463.00,VWS V14.01,2017-01-21 18:04:00,
2017-01-21 13:09:00,47.1,46.6,29.82,SSE,158,0.0,2.0,98,0.00,,,0.00,461.00,VWS V14.01,2017-01-21 18:09:00,
2017-01-21 13:14:00,47.4,46.6,29.81,SSE,158,2.0,2.0,97,0.00,,,0.00,456.00,VWS V14.01,2017-01-21 18:14:00,
2017-01-21 13:19:00,47.9,46.8,29.81,South,172,0.0,4.0,96,0.00,,,0.00,452.00,VWS V14.01,2017-01-21 18:19:00,
2017-01-21 13:24:00,48.0,46.6,29.81,SSE,164,0.0,3.0,95,0.00,,,0.00,447.00,VWS V14.01,2017-01-21 18:24:00,
2017-01-21 13:29:00,48.6,47.0,29.81,SSE,160,3.0,3.0,94,0.00,,,0.00,442.00,VWS V14.01,2017-01-21 18:29:00,
2017-01-21 13:34:00,49.1,46.6,29.81,SSE,161,2.0,5.0,91,0.00,,,0.00,435.00,VWS V14.01,2017-01-21 18:34:00,
2017-01-21 13:39:00,49.1,46.0,29.81,SSE,154,1.0,4.0,89,0.00,,,0.00,428.00,VWS V14.01,2017-01-21 18:39:00,
2017-01-21 13:44:00,48.9,45.5,29.81,SSE,160,2.0,7.0,88,0.00,,,0.00,421.00,VWS V14.01,2017-01-21 18:44:00,
2017-01-21 13:49:00,49.1,45.4,29.81,South,188,2.0,7.0,87,0.00,,OVC007,0.00,417.00,VWS V14.01,2017-01-21 18:49:00,
2017-01-21 13:54:00,49.2,45.2,29.81,SSE,164,2.0,6.0,86,0.00,,OVC007,0.00,406.00,VWS V14.01,2017-01-21 18:54:00,
2017-01-21 13:59:00,49.5,45.5,29.81,South,169,0.0,3.0,86,0.00,,OVC007,0.00,398.00,VWS V14.01,2017-01-21 18:59:00,
2017-01-21 14:04:00,49.8,45.2,29.81,West,271,1.0,5.0,84,0.00,,OVC007,0.00,389.00,VWS V14.01,2017-01-21 19:04:00,
2017-01-21 14:09:00,49.9,45.3,29.81,SW,232,6.0,7.0,84,0.00,,OVC007,0.00,385.00,VWS V14.01,2017-01-21 19:09:00,
2017-01-21 14:14:00,49.5,44.9,29.81,SW,232,4.0,7.0,84,0.00,,OVC007,0.00,378.00,VWS V14.01,2017-01-21 19:14:00,
2017-01-21 14:19:00,49.2,44.3,29.81,SW,222,5.0,11.0,83,0.00,,OVC007,0.00,354.00,VWS V14.01,2017-01-21 19:19:00,
2017-01-21 14:24:00,49.4,44.8,29.81,SW,232,5.0,6.0,84,0.00,,OVC007,0.00,333.00,VWS V14.01,2017-01-21 19:24:00,
2017-01-21 14:29:00,49.8,44.8,29.81,South,189,3.0,6.0,83,0.00,,OVC007,0.00,345.00,VWS V14.01,2017-01-21 19:29:00,
2017-01-21 14:34:00,49.8,44.8,29.81,South,176,0.0,2.0,83,0.00,,OVC007,0.00,343.00,VWS V14.01,2017-01-21 19:34:00,
2017-01-21 14:39:00,49.6,45.0,29.81,SW,223,0.0,7.0,84,0.00,,OVC007,0.00,324.00,VWS V14.01,2017-01-21 19:39:00,
2017-01-21 14:44:00,49.6,44.7,29.82,South,185,0.0,7.0,83,0.00,,OVC007,0.00,259.00,VWS V14.01,2017-01-21 19:44:00,
2017-01-21 14:49:00,49.8,44.8,29.82,SSW,193,6.0,7.0,83,0.00,,OVC009,0.00,206.00,VWS V14.01,2017-01-21 19:49:00,
2017-01-21 14:54:00,49.1,44.2,29.82,South,191,7.0,9.0,83,0.00,,OVC009,0.00,187.00,VWS V14.01,2017-01-21 19:54:00,
2017-01-21 14:59:00,48.6,44.3,29.82,SSW,209,6.0,8.0,85,0.00,,OVC009,0.00,185.00,VWS V14.01,2017-01-21 19:59:00,
2017-01-21 15:04:00,48.2,44.2,29.82,SSW,210,3.0,8.0,86,0.00,,OVC009,0.00,135.00,VWS V14.01,2017-01-21 20:04:00,
2017-01-21 15:09:00,48.0,44.3,29.82,SW,219,7.0,10.0,87,0.00,,OVC009,0.00,187.00,VWS V14.01,2017-01-21 20:09:00,
2017-01-21 15:14:00,47.7,44.3,29.82,South,175,2.0,10.0,88,0.00,,OVC009,0.00,171.00,VWS V14.01,2017-01-21 20:14:00,
2017-01-21 15:19:00,47.4,44.0,29.82,SSW,213,6.0,10.0,88,0.00,,OVC009,0.00,114.00,VWS V14.01,2017-01-21 20:19:00,
2017-01-21 15:24:00,47.0,43.6,29.82,South,189,0.0,9.0,88,0.00,,OVC009,0.00,93.00,VWS V14.01,2017-01-21 20:24:00,
2017-01-21 15:29:00,46.7,43.6,29.82,SSW,193,2.0,7.0,89,0.00,,OVC009,0.00,79.00,VWS V14.01,2017-01-21 20:29:00,
2017-01-21 15:34:00,46.5,43.7,29.82,SW,215,0.0,6.0,90,0.00,,OVC009,0.00,72.00,VWS V14.01,2017-01-21 20:34:00,
2017-01-21 15:39:00,46.4,43.9,29.82,SW,217,1.0,5.0,91,0.00,,OVC009,0.00,65.00,VWS V14.01,2017-01-21 20:39:00,
2017-01-21 15:44:00,46.4,43.9,29.82,South,185,2.0,5.0,91,0.00,,OVC009,0.00,69.00,VWS V14.01,2017-01-21 20:44:00,
2017-01-21 15:49:00,46.2,43.7,29.82,SSW,208,5.0,10.0,91,0.00,,OVC006,0.00,81.00,VWS V14.01,2017-01-21 20:49:00,
2017-01-21 15:54:00,46.2,44.0,29.82,South,189,0.0,3.0,92,0.00,,OVC006,0.00,76.00,VWS V14.01,2017-01-21 20:54:00,
2017-01-21 15:59:00,46.2,44.0,29.82,SSW,193,5.0,5.0,92,0.00,,OVC006,0.00,69.00,VWS V14.01,2017-01-21 20:59:00,
2017-01-21 16:04:00,46.1,43.9,29.82,West,264,0.0,0.0,92,0.00,,OVC006,0.00,86.00,VWS V14.01,2017-01-21 21:04:00,
2017-01-21 16:09:00,46.0,43.8,29.82,West,264,0.0,1.0,92,0.00,,OVC006,0.00,81.00,VWS V14.01,2017-01-21 21:09:00,
2017-01-21 16:14:00,45.8,43.6,29.81,WSW,248,4.0,5.0,92,0.00,,OVC006,0.00,49.00,VWS V14.01,2017-01-21 21:14:00,
2017-01-21 16:19:00,45.7,43.5,29.81,WSW,246,6.0,6.0,92,0.00,,OVC006,0.00,49.00,VWS V14.01,2017-01-21 21:19:00,
2017-01-21 16:24:00,45.7,43.5,29.81,WSW,244,2.0,3.0,92,0.00,,OVC006,0.00,33.00,VWS V14.01,2017-01-21 21:24:00,
2017-01-21 16:29:00,45.5,43.3,29.82,WSW,244,4.0,6.0,92,0.00,,OVC006,0.00,18.00,VWS V14.01,2017-01-21 21:29:00,
2017-01-21 16:34:00,45.4,43.5,29.82,WSW,243,1.0,5.0,93,0.00,,OVC006,0.00,14.00,VWS V14.01,2017-01-21 21:34:00,
2017-01-21 16:39:00,45.1,43.2,29.82,SW,236,5.0,5.0,93,0.00,,OVC006,0.00,5.00,VWS V14.01,2017-01-21 21:39:00,
2017-01-21 16:44:00,44.9,43.0,29.82,SW,236,2.0,5.0,93,0.00,,OVC006,0.00,0.00,VWS V14.01,2017-01-21 21:44:00,
2017-01-21 16:49:00,44.6,42.7,29.82,SW,234,0.0,6.0,93,0.00,,OVC006,0.00,0.00,VWS V14.01,2017-01-21 21:49:00,
2017-01-21 16:54:00,44.5,42.9,29.82,SW,234,0.0,0.0,94,0.00,,OVC006,0.00,0.00,VWS V14.01,2017-01-21 21:54:00,
2017-01-21 16:59:00,44.5,42.9,29.82,SW,234,2.0,5.0,94,0.00,,OVC006,0.00,0.00,VWS V14.01,2017-01-21 21:59:00,
2017-01-21 17:04:00,44.3,42.7,29.82,SW,234,0.0,0.0,94,0.00,,OVC006,0.00,0.00,VWS V14.01,2017-01-21 22:04:00,
2017-01-21 17:09:00,44.3,43.0,29.82,SW,234,0.0,0.0,95,0.00,,OVC006,0.00,0.00,VWS V14.01,2017-01-21 22:09:00,
2017-01-21 17:14:00,44.2,42.9,29.82,SW,234,1.0,1.0,95,0.00,,OVC006,0.00,0.00,VWS V14.01,2017-01-21 22:14:00,
2017-01-21 17:19:00,44.1,42.8,29.82,SW,234,0.0,3.0,95,0.00,,OVC006,0.00,0.00,VWS V14.01,2017-01-21 22:19:00,
2017-01-21 17:24:00,44.1,42.8,29.82,SW,234,0.0,0.0,95,0.00,,OVC006,0.00,0.00,VWS V14.01,2017-01-21 22:24:00,
2017-01-21 17:29:00,43.9,42.6,29.83,SW,234,0.0,2.0,95,0.00,,OVC006,0.00,0.00,VWS V14.01,2017-01-21 22:29:00,
2017-01-21 17:34:00,43.9,42.8,29.83,SW,234,1.0,6.0,96,0.00,,OVC006,0.00,0.00,VWS V14.01,2017-01-21 22:34:00,
2017-01-21 17:39:00,43.9,42.8,29.83,SW,234,2.0,3.0,96,0.00,,OVC006,0.00,0.00,VWS V14.01,2017-01-21 22:39:00,
2017-01-21 17:44:00,43.8,42.7,29.82,SW,234,0.0,0.0,96,0.00,,OVC006,0.00,0.00,VWS V14.01,2017-01-21 22:44:00,
2017-01-21 17:49:00,43.6,42.5,29.82,SW,234,0.0,0.0,96,0.00,,,0.00,0.00,VWS V14.01,2017-01-21 22:49:00,
2017-01-21 17:54:00,43.6,42.5,29.82,SW,234,0.0,0.0,96,0.00,,,0.00,0.00,VWS V14.01,2017-01-21 22:54:00,
2017-01-21 17:59:00,43.6,42.8,29.82,SW,234,0.0,0.0,97,0.00,,,0.00,0.00,VWS V14.01,2017-01-21 22:59:00,
2017-01-21 18:04:00,43.5,42.7,29.82,SW,234,0.0,0.0,97,0.00,,,0.00,0.00,VWS V14.01,2017-01-21 23:04:00,
2017-01-21 18:09:00,43.5,42.7,29.82,SW,234,0.0,2.0,97,0.00,,,0.00,0.00,VWS V14.01,2017-01-21 23:09:00,
2017-01-21 18:14:00,43.5,42.7,29.82,SW,234,0.0,0.0,97,0.00,,,0.00,0.00,VWS V14.01,2017-01-21 23:14:00,
2017-01-21 18:19:00,43.2,42.4,29.82,SW,234,0.0,0.0,97,0.00,,,0.00,0.00,VWS V14.01,2017-01-21 23:19:00,
2017-01-21 18:24:00,43.2,42.4,29.82,SW,234,0.0,0.0,97,0.00,,,0.00,0.00,VWS V14.01,2017-01-21 23:24:00,
2017-01-21 18:29:00,43.2,42.4,29.83,SW,234,0.0,0.0,97,0.00,,,0.00,0.00,VWS V14.01,2017-01-21 23:29:00,
2017-01-21 18:34:00,43.2,42.4,29.83,SW,234,0.0,0.0,97,0.00,,,0.00,0.00,VWS V14.01,2017-01-21 23:34:00,
2017-01-21 18:39:00,43.1,42.3,29.83,SW,234,0.0,0.0,97,0.00,,,0.00,0.00,VWS V14.01,2017-01-21 23:39:00,
2017-01-21 18:44:00,42.9,42.4,29.83,SW,234,0.0,0.0,98,0.00,,,0.00,0.00,VWS V14.01,2017-01-21 23:44:00,
2017-01-21 18:49:00,42.9,42.4,29.83,SW,234,0.0,0.0,98,0.00,,,0.00,0.00,VWS V14.01,2017-01-21 23:49:00,
2017-01-21 18:54:00,42.9,42.4,29.83,SW,234,0.0,0.0,98,0.00,,,0.00,0.00,VWS V14.01,2017-01-21 23:54:00,
2017-01-21 18:59:00,42.9,42.4,29.83,SW,234,0.0,0.0,98,0.00,,,0.00,0.00,VWS V14.01,2017-01-21 23:59:00,
2017-01-21 19:04:00,42.9,42.4,29.83,SW,234,0.0,0.0,98,0.00,,,0.00,0.00,VWS V14.01,2017-01-22 00:04:00,
2017-01-21 19:09:00,42.9,42.4,29.83,SW,234,0.0,0.0,98,0.00,,,0.00,0.00,VWS V14.01,2017-01-22 00:09:00,
2017-01-21 19:14:00,42.9,42.4,29.83,SW,234,4.0,5.0,98,0.00,,,0.00,0.00,VWS V14.01,2017-01-22 00:14:00,
2017-01-21 19:19:00,42.8,42.3,29.83,SW,234,2.0,5.0,98,0.00,,,0.00,0.00,VWS V14.01,2017-01-22 00:19:00,
2017-01-21 19:24:00,42.8,42.3,29.83,SW,234,5.0,5.0,98,0.00,,,0.00,0.00,VWS V14.01,2017-01-22 00:24:00,
2017-01-21 19:29:00,42.6,42.1,29.83,SW,233,2.0,5.0,98,0.00,,,0.00,0.00,VWS V14.01,2017-01-22 00:29:00,
2017-01-21 19:34:00,42.6,42.1,29.83,SW,233,1.0,6.0,98,0.00,,,0.00,0.00,VWS V14.01,2017-01-22 00:34:00,
2017-01-21 19:39:00,42.6,42.1,29.83,SW,233,0.0,0.0,98,0.00,,,0.00,0.00,VWS V14.01,2017-01-22 00:39:00,
2017-01-21 19:44:00,42.6,42.1,29.83,SW,233,0.0,5.0,98,0.00,,,0.00,0.00,VWS V14.01,2017-01-22 00:44:00,
2017-01-21 19:49:00,42.6,42.3,29.83,SW,233,0.0,0.0,99,0.00,,,0.00,0.00,VWS V14.01,2017-01-22 00:49:00,
2017-01-21 19:54:00,42.5,42.2,29.83,SW,233,0.0,0.0,99,0.00,,,0.00,0.00,VWS V14.01,2017-01-22 00:54:00,
2017-01-21 19:59:00,42.5,42.2,29.82,SW,234,0.0,0.0,99,0.00,,,0.00,0.00,VWS V14.01,2017-01-22 00:59:00,
2017-01-21 20:04:00,42.5,42.2,29.82,SW,234,0.0,0.0,99,0.00,,,0.00,0.00,VWS V14.01,2017-01-22 01:04:00,
2017-01-21 20:09:00,42.3,42.0,29.82,SW,233,0.0,0.0,99,0.00,,,0.00,0.00,VWS V14.01,2017-01-22 01:09:00,
2017-01-21 20:14:00,42.3,42.0,29.80,SW,234,0.0,0.0,99,0.00,,,0.00,0.00,VWS V14.01,2017-01-22 01:14:00,
2017-01-21 20:19:00,42.2,41.9,29.80,SW,233,0.0,0.0,99,0.00,,,0.00,0.00,VWS V14.01,2017-01-22 01:19:00,
2017-01-21 20:24:00,42.2,41.9,29.80,SW,233,0.0,0.0,99,0.00,,,0.00,0.00,VWS V14.01,2017-01-22 01:24:00,
2017-01-21 20:29:00,42.1,41.8,29.80,SW,233,0.0,0.0,99,0.00,,,0.00,0.00,VWS V14.01,2017-01-22 01:29:00,
2017-01-21 20:34:00,41.8,41.5,29.80,SW,233,0.0,0.0,99,0.00,,,0.00,0.00,VWS V14.01,2017-01-22 01:34:00,
2017-01-21 20:39:00,41.8,41.5,29.80,NW,311,0.0,3.0,99,0.00,,,0.00,0.00,VWS V14.01,2017-01-22 01:39:00,
2017-01-21 20:44:00,41.6,41.3,29.80,NW,312,0.0,0.0,99,0.00,,,0.00,0.00,VWS V14.01,2017-01-22 01:44:00,
2017-01-21 20:49:00,41.5,41.2,29.80,NW,312,0.0,0.0,99,0.00,,,0.00,0.00,VWS V14.01,2017-01-22 01:49:00,